createdAt,value
2018-11-14T00:00:30.834Z,91.90
2018-11-14T00:03:00.244Z,91.90
2018-11-14T00:05:28.521Z,91.90
2018-11-14T00:07:56.775Z,91.90
2018-11-14T00:10:25.027Z,91.90
2018-11-14T00:12:53.317Z,91.90
2018-11-14T00:15:23.468Z,91.90
2018-11-14T00:17:52.117Z,91.90
2018-11-14T00:20:20.357Z,91.90
2018-11-14T00:22:49.500Z,91.90
2018-11-14T00:25:17.755Z,91.90
2018-11-14T00:27:45.987Z,91.90
2018-11-14T00:30:16.716Z,91.90
2018-11-14T00:32:44.909Z,91.90
2018-11-14T00:35:13.621Z,91.90
2018-11-14T00:37:42.111Z,91.90
2018-11-14T00:40:11.888Z,91.90
2018-11-14T00:42:40.610Z,91.90
2018-11-14T00:45:10.614Z,91.90
2018-11-14T00:47:38.901Z,91.90
2018-11-14T00:50:07.830Z,91.90
2018-11-14T00:52:36.037Z,91.90
2018-11-14T00:55:04.612Z,91.90
2018-11-14T00:57:32.789Z,91.90
2018-11-14T01:00:00.977Z,91.90
2018-11-14T01:02:29.194Z,91.90
2018-11-14T01:04:57.415Z,91.90
2018-11-14T01:07:25.661Z,91.90
2018-11-14T01:09:54.286Z,91.90
2018-11-14T01:12:22.502Z,91.90
2018-11-14T01:14:50.719Z,91.90
2018-11-14T01:17:18.988Z,91.90
2018-11-14T01:19:47.145Z,91.90
2018-11-14T01:22:15.410Z,91.90
2018-11-14T01:24:43.628Z,91.90
2018-11-14T01:27:12.465Z,91.90
2018-11-14T01:29:40.343Z,91.90
2018-11-14T01:32:08.629Z,91.90
2018-11-14T01:34:36.900Z,91.90
2018-11-14T01:37:05.499Z,91.90
2018-11-14T01:39:33.792Z,91.90
2018-11-14T01:42:02.081Z,91.90
2018-11-14T01:44:30.407Z,91.90
2018-11-14T01:46:58.619Z,91.90
2018-11-14T01:49:26.911Z,91.90
2018-11-14T01:51:55.243Z,91.90
2018-11-14T01:54:23.440Z,91.90
2018-11-14T01:56:51.734Z,91.90
2018-11-14T01:59:20.008Z,91.90
2018-11-14T02:01:48.223Z,91.90
2018-11-14T02:04:16.480Z,91.90
2018-11-14T02:06:44.715Z,91.90
2018-11-14T02:09:12.964Z,91.90
2018-11-14T02:11:41.177Z,91.90
2018-11-14T02:14:09.402Z,91.90
2018-11-14T02:16:37.683Z,91.90
2018-11-14T02:19:07.223Z,91.90
2018-11-14T02:21:35.484Z,91.90
2018-11-14T02:24:03.723Z,91.90
2018-11-14T02:26:32.003Z,91.90
2018-11-14T02:29:00.223Z,91.90
2018-11-14T02:31:28.493Z,91.90
2018-11-14T02:33:57.637Z,91.90
2018-11-14T02:36:25.900Z,91.90
2018-11-14T02:38:54.180Z,91.90
2018-11-14T02:41:22.599Z,91.90
2018-11-14T02:43:50.900Z,91.90
2018-11-14T02:46:19.104Z,91.90
2018-11-14T02:48:47.369Z,91.90
2018-11-14T02:51:25.707Z,91.90
2018-11-14T02:53:54.007Z,91.90
2018-11-14T02:56:22.257Z,91.90
2018-11-14T02:58:50.509Z,91.90
2018-11-14T03:01:18.864Z,91.90
2018-11-14T03:03:47.068Z,91.90
2018-11-14T03:06:15.361Z,91.90
2018-11-14T03:08:43.644Z,91.90
2018-11-14T03:11:11.912Z,91.90
2018-11-14T03:13:40.155Z,91.90
2018-11-14T03:16:08.536Z,91.90
2018-11-14T03:18:36.784Z,91.90
2018-11-14T03:21:11.535Z,91.90
2018-11-14T03:23:39.796Z,91.90
2018-11-14T03:26:08.020Z,91.90
2018-11-14T03:28:36.219Z,91.90
2018-11-14T03:31:04.624Z,91.90
2018-11-14T03:33:32.886Z,91.90
2018-11-14T03:36:06.412Z,91.90
2018-11-14T03:38:34.683Z,91.90
2018-11-14T03:41:02.990Z,91.90
2018-11-14T03:43:31.256Z,91.90
2018-11-14T03:45:59.552Z,91.90
2018-11-14T03:48:27.913Z,91.90
2018-11-14T03:50:56.185Z,91.90
2018-11-14T03:53:24.402Z,91.90
2018-11-14T03:55:52.620Z,91.90
2018-11-14T03:58:20.888Z,91.90
2018-11-14T04:00:49.111Z,91.90
2018-11-14T04:03:26.868Z,91.90
2018-11-14T04:05:55.000Z,91.90
2018-11-14T04:08:23.161Z,91.90
2018-11-14T04:10:51.372Z,91.90
2018-11-14T04:13:19.548Z,91.90
2018-11-14T04:15:48.604Z,91.90
2018-11-14T04:18:16.873Z,91.90
2018-11-14T04:20:45.068Z,91.90
2018-11-14T04:23:13.346Z,91.90
2018-11-14T04:25:42.155Z,91.90
2018-11-14T04:28:10.409Z,91.90
2018-11-14T04:30:38.631Z,91.90
2018-11-14T04:33:06.894Z,91.90
2018-11-14T04:35:35.175Z,91.90
2018-11-14T04:38:03.407Z,91.90
2018-11-14T04:40:31.692Z,91.90
2018-11-14T04:42:59.873Z,91.90
2018-11-14T04:45:28.097Z,91.90
2018-11-14T04:47:56.342Z,91.90
2018-11-14T04:50:26.396Z,91.90
2018-11-14T04:52:55.042Z,91.90
2018-11-14T04:55:24.323Z,91.90
2018-11-14T04:57:52.600Z,91.90
2018-11-14T05:00:22.111Z,91.90
2018-11-14T05:02:50.812Z,91.90
2018-11-14T05:05:20.090Z,91.90
2018-11-14T05:07:48.287Z,91.90
2018-11-14T05:10:18.603Z,91.90
2018-11-14T05:12:47.447Z,91.90
2018-11-14T05:15:17.004Z,91.90
2018-11-14T05:17:46.234Z,91.90
2018-11-14T05:20:15.599Z,91.90
2018-11-14T05:22:44.267Z,91.90
2018-11-14T05:25:12.699Z,91.90
2018-11-14T05:27:41.063Z,91.90
2018-11-14T05:30:12.696Z,91.90
2018-11-14T05:32:41.578Z,91.90
2018-11-14T05:35:10.710Z,91.90
2018-11-14T05:37:39.528Z,91.90
2018-11-14T05:40:10.429Z,91.90
2018-11-14T05:42:40.688Z,91.90
2018-11-14T05:45:11.441Z,91.90
2018-11-14T05:47:39.594Z,91.90
2018-11-14T05:50:14.096Z,91.90
2018-11-14T05:52:42.275Z,91.90
2018-11-14T05:55:11.932Z,91.90
2018-11-14T05:57:40.263Z,91.90
2018-11-14T06:00:13.976Z,91.90
2018-11-14T06:02:42.325Z,91.90
2018-11-14T06:05:10.726Z,91.90
2018-11-14T06:07:39.224Z,91.90
2018-11-14T06:10:09.260Z,91.90
2018-11-14T06:12:38.063Z,91.90
2018-11-14T06:15:08.513Z,91.90
2018-11-14T06:17:36.755Z,91.90
2018-11-14T06:20:05.211Z,91.90
2018-11-14T06:22:35.197Z,91.90
2018-11-14T06:25:24.436Z,91.90
2018-11-14T06:27:53.573Z,91.90
2018-11-14T06:30:22.347Z,91.90
2018-11-14T06:32:51.112Z,91.90
2018-11-14T06:35:19.771Z,91.90
2018-11-14T06:37:48.786Z,91.90
2018-11-14T06:40:17.054Z,91.90
2018-11-14T06:42:45.246Z,91.90
2018-11-14T06:45:16.878Z,91.90
2018-11-14T06:47:46.414Z,91.90
2018-11-14T06:50:15.066Z,91.90
2018-11-14T06:52:43.963Z,91.90
2018-11-14T06:55:13.542Z,91.90
2018-11-14T06:57:41.855Z,91.90
2018-11-14T07:00:13.343Z,91.90
2018-11-14T07:02:42.070Z,91.90
2018-11-14T07:05:13.465Z,91.90
2018-11-14T07:07:41.988Z,91.90
2018-11-14T07:10:12.214Z,91.90
2018-11-14T07:12:40.432Z,91.90
2018-11-14T07:15:10.921Z,91.90
2018-11-14T07:17:39.202Z,91.90
2018-11-14T07:20:11.455Z,91.90
2018-11-14T07:22:39.715Z,91.90
2018-11-14T07:25:08.347Z,91.90
2018-11-14T07:27:36.587Z,91.90
2018-11-14T07:30:06.396Z,91.90
2018-11-14T07:32:34.632Z,91.90
2018-11-14T07:35:02.867Z,91.90
2018-11-14T07:37:31.103Z,91.90
2018-11-14T07:39:59.373Z,91.90
2018-11-14T07:42:27.623Z,91.90
2018-11-14T07:44:55.905Z,91.90
2018-11-14T07:47:24.176Z,91.90
2018-11-14T07:49:53.133Z,91.90
2018-11-14T07:52:21.320Z,91.90
2018-11-14T07:54:49.585Z,91.90
2018-11-14T07:57:17.831Z,91.90
2018-11-14T07:59:46.105Z,91.90
2018-11-14T08:02:14.334Z,91.90
2018-11-14T08:04:42.580Z,91.90
2018-11-14T08:07:10.851Z,91.90
2018-11-14T08:09:39.071Z,91.90
2018-11-14T08:12:07.531Z,91.90
2018-11-14T08:14:35.759Z,91.90
2018-11-14T08:17:04.018Z,91.90
2018-11-14T08:19:32.306Z,91.90
2018-11-14T08:22:00.571Z,91.90
2018-11-14T08:24:28.863Z,91.90
2018-11-14T08:26:57.162Z,91.90
2018-11-14T08:29:25.423Z,91.90
2018-11-14T08:31:53.658Z,91.90
2018-11-14T08:34:22.036Z,91.90
2018-11-14T08:36:50.312Z,91.90
2018-11-14T08:39:18.954Z,91.90
2018-11-14T08:41:47.232Z,91.90
2018-11-14T08:44:15.499Z,91.90
2018-11-14T08:46:43.792Z,91.90
2018-11-14T08:49:12.068Z,91.90
2018-11-14T08:51:40.288Z,91.90
2018-11-14T08:54:09.119Z,91.90
2018-11-14T08:56:37.967Z,91.90
2018-11-14T08:59:06.316Z,91.90
2018-11-14T09:01:34.539Z,91.90
2018-11-14T09:04:02.778Z,91.90
2018-11-14T09:06:31.852Z,91.90
2018-11-14T09:09:00.105Z,91.90
2018-11-14T09:11:29.485Z,91.90
2018-11-14T09:13:57.745Z,91.90
2018-11-14T09:16:25.987Z,91.90
2018-11-14T09:18:54.233Z,91.90
2018-11-14T09:21:22.475Z,91.90
2018-11-14T09:23:50.736Z,91.90
2018-11-14T09:26:20.975Z,91.90
2018-11-14T09:28:49.183Z,91.90
2018-11-14T09:31:17.413Z,91.90
2018-11-14T09:33:45.691Z,91.90
2018-11-14T09:36:13.992Z,91.90
2018-11-14T09:38:42.246Z,91.90
2018-11-14T09:41:10.519Z,91.90
2018-11-14T09:43:38.755Z,91.90
2018-11-14T09:46:07.414Z,91.90
2018-11-14T09:48:35.723Z,91.90
2018-11-14T09:51:03.951Z,91.90
2018-11-14T09:53:32.292Z,91.90
2018-11-14T09:56:00.636Z,91.90
2018-11-14T09:58:28.903Z,91.90
2018-11-14T10:00:57.239Z,91.90
2018-11-14T10:03:25.531Z,91.90
2018-11-14T10:05:53.691Z,91.90
2018-11-14T10:08:21.965Z,91.90
2018-11-14T10:10:50.437Z,91.90
2018-11-14T10:13:18.647Z,91.90
2018-11-14T10:15:47.004Z,91.90
2018-11-14T10:18:15.223Z,91.90
2018-11-14T10:20:43.452Z,91.90
2018-11-14T10:23:12.234Z,91.90
2018-11-14T10:25:40.518Z,91.90
2018-11-14T10:28:08.771Z,91.90
2018-11-14T10:30:37.041Z,91.90
2018-11-14T10:33:05.407Z,91.90
2018-11-14T10:35:33.600Z,91.90
2018-11-14T10:38:01.865Z,91.90
2018-11-14T10:40:30.123Z,91.90
2018-11-14T10:42:58.495Z,91.90
2018-11-14T10:45:27.604Z,91.90
2018-11-14T10:47:55.818Z,91.90
2018-11-14T10:50:25.187Z,91.90
2018-11-14T10:52:53.436Z,91.40
2018-11-14T10:55:22.023Z,91.20
2018-11-14T10:57:50.471Z,91.90
2018-11-14T11:00:28.358Z,91.60
2018-11-14T11:03:02.523Z,91.80
2018-11-14T11:05:36.256Z,91.90
2018-11-14T11:08:10.706Z,91.60
2018-11-14T11:10:44.215Z,91.90
2018-11-14T11:13:17.874Z,91.80
2018-11-14T11:15:52.184Z,91.60
2018-11-14T11:18:24.440Z,91.60
2018-11-14T11:20:53.038Z,91.50
2018-11-14T11:23:21.363Z,90.60
2018-11-14T11:25:49.530Z,89.70
2018-11-14T11:28:17.740Z,90.10
2018-11-14T11:30:46.092Z,89.80
2018-11-14T11:33:14.555Z,89.70
2018-11-14T11:35:42.778Z,89.30
2018-11-14T11:38:11.058Z,89.70
2018-11-14T11:40:39.251Z,90.10
2018-11-14T11:43:07.570Z,90.40
2018-11-14T11:45:36.207Z,90.00
2018-11-14T11:48:04.459Z,90.90
2018-11-14T11:50:32.691Z,90.50
2018-11-14T11:53:01.435Z,90.30
2018-11-14T11:55:29.616Z,90.20
2018-11-14T11:57:57.865Z,90.50
2018-11-14T12:00:26.977Z,90.50
2018-11-14T12:02:55.082Z,90.30
2018-11-14T12:05:23.338Z,89.70
2018-11-14T12:07:51.577Z,90.00
2018-11-14T12:10:19.802Z,90.30
2018-11-14T12:12:47.998Z,90.40
2018-11-14T12:15:16.191Z,90.30
2018-11-14T12:17:51.247Z,91.40
2018-11-14T12:20:19.470Z,91.30
2018-11-14T12:22:47.750Z,91.40
2018-11-14T12:25:16.272Z,91.70
2018-11-14T12:27:44.625Z,91.80
2018-11-14T12:30:15.272Z,91.90
2018-11-14T12:32:43.540Z,91.60
2018-11-14T12:35:13.366Z,91.60
2018-11-14T12:37:41.763Z,91.30
2018-11-14T12:40:16.575Z,90.80
2018-11-14T12:42:44.838Z,90.70
2018-11-14T12:45:14.475Z,90.20
2018-11-14T12:47:42.683Z,90.00
2018-11-14T12:50:12.057Z,89.60
2018-11-14T12:52:40.595Z,89.50
2018-11-14T12:55:11.344Z,89.80
2018-11-14T12:57:39.631Z,89.40
2018-11-14T13:00:11.237Z,89.50
2018-11-14T13:02:39.841Z,89.00
2018-11-14T13:05:09.198Z,88.90
2018-11-14T13:07:37.653Z,88.70
2018-11-14T13:10:07.156Z,88.90
2018-11-14T13:12:35.444Z,88.60
2018-11-14T13:15:03.772Z,88.50
2018-11-14T13:17:32.029Z,88.60
2018-11-14T13:20:01.638Z,88.80
2018-11-14T13:22:30.239Z,88.50
2018-11-14T13:24:58.491Z,88.90
2018-11-14T13:27:26.755Z,88.40
2018-11-14T13:29:54.972Z,88.30
2018-11-14T13:32:23.239Z,87.60
2018-11-14T13:34:51.613Z,87.50
2018-11-14T13:37:19.943Z,87.30
2018-11-14T13:39:48.215Z,87.60
2018-11-14T13:42:16.487Z,87.60
2018-11-14T13:44:44.712Z,87.70
2018-11-14T13:47:12.995Z,87.20
2018-11-14T13:49:41.413Z,87.20
2018-11-14T13:52:09.411Z,87.00
2018-11-14T13:54:37.631Z,86.60
2018-11-14T13:57:06.525Z,86.60
2018-11-14T13:59:34.839Z,86.50
2018-11-14T14:02:03.087Z,86.80
2018-11-14T14:04:32.379Z,87.00
2018-11-14T14:07:00.606Z,87.20
2018-11-14T14:09:28.875Z,87.30
2018-11-14T14:11:57.079Z,87.30
2018-11-14T14:14:25.342Z,87.20
2018-11-14T14:16:53.594Z,87.00
2018-11-14T14:19:23.277Z,86.90
2018-11-14T14:21:52.279Z,87.10
2018-11-14T14:24:20.830Z,87.10
2018-11-14T14:26:49.091Z,87.00
2018-11-14T14:29:17.389Z,87.60
2018-11-14T14:31:45.691Z,87.80
2018-11-14T14:34:13.879Z,88.60
2018-11-14T14:36:42.165Z,89.00
2018-11-14T14:39:11.629Z,89.50
2018-11-14T14:41:39.901Z,89.80
2018-11-14T14:44:08.556Z,89.90
2018-11-14T14:46:37.000Z,90.10
2018-11-14T14:49:05.497Z,90.40
2018-11-14T14:51:33.748Z,90.50
2018-11-14T14:54:02.193Z,91.00
2018-11-14T14:56:30.748Z,91.10
2018-11-14T14:58:59.032Z,91.30
2018-11-14T15:01:27.412Z,91.50
2018-11-14T15:03:55.748Z,91.70
2018-11-14T15:06:24.131Z,91.90
2018-11-14T15:08:59.159Z,91.90
2018-11-14T15:11:27.478Z,91.90
2018-11-14T15:13:55.780Z,91.90
2018-11-14T15:16:24.050Z,91.90
2018-11-14T15:18:52.520Z,91.90
2018-11-14T15:21:20.759Z,91.90
2018-11-14T15:23:48.975Z,91.90
2018-11-14T15:26:17.227Z,91.90
2018-11-14T15:28:45.515Z,91.90
2018-11-14T15:31:13.811Z,91.90
2018-11-14T15:33:42.144Z,91.90
2018-11-14T15:36:10.431Z,91.90
2018-11-14T15:38:38.655Z,91.90
2018-11-14T15:41:06.903Z,91.90
2018-11-14T15:43:35.222Z,91.90
2018-11-14T15:46:03.476Z,91.90
2018-11-14T15:48:31.698Z,91.90
2018-11-14T15:51:00.821Z,91.90
2018-11-14T15:53:29.121Z,91.90
2018-11-14T15:55:57.495Z,91.90
2018-11-14T15:58:25.782Z,91.90
2018-11-14T16:00:53.995Z,91.90
2018-11-14T16:03:22.270Z,91.90
2018-11-14T16:05:50.487Z,91.90
2018-11-14T16:08:18.837Z,91.90
2018-11-14T16:10:47.109Z,91.90
2018-11-14T16:13:15.408Z,91.90
2018-11-14T16:15:44.316Z,91.90
2018-11-14T16:18:12.592Z,91.90
2018-11-14T16:20:40.841Z,91.90
2018-11-14T16:23:09.321Z,91.90
2018-11-14T16:25:44.259Z,91.90
2018-11-14T16:28:12.540Z,91.90
2018-11-14T16:30:41.339Z,91.90
2018-11-14T16:33:09.594Z,91.90
2018-11-14T16:35:37.871Z,91.90
2018-11-14T16:38:06.406Z,91.90
2018-11-14T16:40:35.352Z,91.90
2018-11-14T16:43:06.023Z,91.90
2018-11-14T16:45:34.321Z,91.90
2018-11-14T16:48:03.084Z,91.90
2018-11-14T16:50:31.286Z,91.90
2018-11-14T16:52:59.518Z,91.90
2018-11-14T16:55:27.862Z,91.90
2018-11-14T16:57:56.730Z,91.90
2018-11-14T17:00:26.556Z,91.90
2018-11-14T17:02:55.055Z,91.90
2018-11-14T17:05:24.192Z,91.90
2018-11-14T17:07:52.471Z,91.90
2018-11-14T17:10:21.475Z,91.90
2018-11-14T17:12:51.203Z,91.90
2018-11-14T17:15:20.780Z,91.90
2018-11-14T17:17:49.123Z,91.90
2018-11-14T17:20:18.358Z,91.90
2018-11-14T17:22:47.359Z,91.90
2018-11-14T17:25:16.330Z,91.90
2018-11-14T17:27:45.116Z,91.90
2018-11-14T17:30:15.059Z,91.90
2018-11-14T17:32:43.568Z,91.90
2018-11-14T17:35:12.831Z,91.90
2018-11-14T17:37:41.959Z,91.90
2018-11-14T17:40:14.578Z,91.90
2018-11-14T17:42:43.682Z,91.90
2018-11-14T17:45:13.963Z,91.90
2018-11-14T17:47:42.298Z,91.90
2018-11-14T17:50:17.268Z,91.90
2018-11-14T17:52:46.147Z,91.90
2018-11-14T17:55:15.290Z,91.90
2018-11-14T17:57:43.603Z,91.90
2018-11-14T18:00:14.773Z,91.90
2018-11-14T18:02:43.824Z,91.90
2018-11-14T18:05:14.915Z,91.90
2018-11-14T18:07:43.842Z,91.90
2018-11-14T18:10:14.105Z,91.90
2018-11-14T18:12:42.776Z,91.90
2018-11-14T18:15:11.553Z,91.90
2018-11-14T18:17:40.265Z,91.90
2018-11-14T18:20:10.891Z,91.90
2018-11-14T18:22:39.750Z,91.90
2018-11-14T18:25:08.059Z,91.90
2018-11-14T18:27:36.317Z,91.90
2018-11-14T18:30:06.633Z,91.90
2018-11-14T18:32:34.892Z,91.90
2018-11-14T18:35:03.808Z,91.90
2018-11-14T18:37:32.084Z,91.90
2018-11-14T18:40:00.377Z,91.90
2018-11-14T18:42:28.603Z,91.90
2018-11-14T18:44:56.867Z,91.90
2018-11-14T18:47:25.160Z,91.90
2018-11-14T18:49:53.399Z,91.90
2018-11-14T18:52:21.691Z,91.90
2018-11-14T18:54:49.969Z,91.90
2018-11-14T18:57:18.188Z,91.90
2018-11-14T18:59:46.771Z,91.90
2018-11-14T19:02:15.035Z,91.90
2018-11-14T19:04:43.315Z,91.90
2018-11-14T19:07:12.153Z,91.90
2018-11-14T19:09:40.331Z,91.90
2018-11-14T19:12:08.582Z,91.90
2018-11-14T19:14:36.858Z,91.90
2018-11-14T19:17:05.100Z,91.90
2018-11-14T19:19:33.403Z,91.90
2018-11-14T19:22:01.660Z,91.90
2018-11-14T19:24:29.997Z,91.90
2018-11-14T19:26:58.245Z,91.90
2018-11-14T19:29:27.212Z,91.90
2018-11-14T19:31:55.495Z,91.90
2018-11-14T19:34:23.974Z,91.90
2018-11-14T19:36:52.214Z,91.90
2018-11-14T19:39:20.421Z,91.90
2018-11-14T19:41:48.778Z,91.90
2018-11-14T19:44:17.052Z,91.90
2018-11-14T19:46:45.300Z,91.90
2018-11-14T19:49:13.614Z,91.90
2018-11-14T19:51:41.838Z,91.90
2018-11-14T19:54:10.113Z,91.90
2018-11-14T19:56:38.340Z,91.90
2018-11-14T19:59:07.446Z,91.90
2018-11-14T20:01:35.703Z,91.90
2018-11-14T20:04:04.026Z,91.90
2018-11-14T20:06:32.270Z,91.90
2018-11-14T20:09:00.495Z,91.90
2018-11-14T20:11:28.780Z,91.90
2018-11-14T20:13:57.558Z,91.90
2018-11-14T20:16:30.390Z,91.90
2018-11-14T20:18:58.630Z,91.90
2018-11-14T20:21:28.109Z,91.90
2018-11-14T20:23:57.843Z,91.90
2018-11-14T20:26:26.142Z,91.90
2018-11-14T20:28:54.923Z,91.90
2018-11-14T20:31:23.171Z,91.90
2018-11-14T20:33:51.523Z,91.90
2018-11-14T20:36:20.490Z,91.90
2018-11-14T20:38:48.723Z,91.90
2018-11-14T20:41:18.679Z,91.90
2018-11-14T20:43:46.987Z,91.90
2018-11-14T20:46:15.215Z,91.90
2018-11-14T20:48:44.299Z,91.90
2018-11-14T20:51:12.963Z,91.90
2018-11-14T20:53:41.482Z,91.90
2018-11-14T20:56:09.726Z,91.90
2018-11-14T20:58:37.940Z,91.90
2018-11-14T21:01:07.018Z,91.90
2018-11-14T21:03:35.230Z,91.90
2018-11-14T21:06:03.486Z,91.90
2018-11-14T21:08:31.689Z,91.90
2018-11-14T21:10:59.867Z,91.90
2018-11-14T21:13:29.907Z,91.90
2018-11-14T21:15:58.086Z,91.90
2018-11-14T21:18:27.056Z,91.90
2018-11-14T21:20:55.780Z,91.90
2018-11-14T21:23:24.048Z,91.90
2018-11-14T21:25:52.557Z,91.90
2018-11-14T21:28:21.568Z,91.90
2018-11-14T21:30:49.887Z,91.90
2018-11-14T21:33:18.131Z,91.90
2018-11-14T21:35:46.339Z,91.90
2018-11-14T21:38:15.133Z,91.90
2018-11-14T21:40:43.316Z,91.90
2018-11-14T21:43:12.440Z,91.90
2018-11-14T21:45:41.101Z,91.90
2018-11-14T21:48:13.919Z,91.90
2018-11-14T21:50:42.368Z,91.90
2018-11-14T21:53:10.866Z,91.90
2018-11-14T21:55:39.082Z,91.90
2018-11-14T21:58:07.353Z,91.90
2018-11-14T22:00:38.313Z,91.90
2018-11-14T22:03:08.037Z,91.90
2018-11-14T22:05:36.568Z,91.90
2018-11-14T22:08:07.822Z,91.90
2018-11-14T22:10:36.145Z,91.90
2018-11-14T22:13:07.749Z,91.90
2018-11-14T22:15:36.012Z,91.90
2018-11-14T22:18:04.327Z,91.90
2018-11-14T22:20:37.894Z,91.90
2018-11-14T22:23:06.106Z,91.90
2018-11-14T22:25:34.400Z,91.90
2018-11-14T22:28:03.442Z,91.90
2018-11-14T22:30:32.799Z,91.90
2018-11-14T22:33:01.028Z,91.90
2018-11-14T22:35:30.886Z,91.90
2018-11-14T22:37:59.538Z,91.90
2018-11-14T22:40:28.921Z,91.90
2018-11-14T22:42:57.281Z,91.90
2018-11-14T22:45:30.868Z,91.90
2018-11-14T22:47:59.137Z,91.90
2018-11-14T22:50:27.783Z,91.90
2018-11-14T22:52:56.132Z,91.90
2018-11-14T22:55:25.226Z,91.90
2018-11-14T22:57:53.925Z,91.90
2018-11-14T23:00:27.866Z,91.90
2018-11-14T23:02:57.364Z,91.90
2018-11-14T23:05:25.787Z,91.90
2018-11-14T23:07:54.784Z,91.90
2018-11-14T23:10:23.899Z,91.90
2018-11-14T23:12:52.531Z,91.90
2018-11-14T23:15:21.445Z,91.90
2018-11-14T23:17:49.945Z,91.90
2018-11-14T23:20:18.623Z,91.90
2018-11-14T23:22:47.529Z,91.90
2018-11-14T23:25:16.182Z,91.90
2018-11-14T23:27:45.713Z,91.90
2018-11-14T23:30:14.956Z,91.90
2018-11-14T23:32:44.420Z,91.90
2018-11-14T23:35:15.052Z,91.90
2018-11-14T23:37:43.695Z,91.90
2018-11-14T23:40:11.915Z,91.90
2018-11-14T23:42:40.166Z,91.90
2018-11-14T23:45:10.494Z,91.90
2018-11-14T23:47:38.718Z,91.90
2018-11-14T23:50:09.944Z,91.90
2018-11-14T23:52:38.217Z,91.90
2018-11-14T23:55:06.785Z,91.90
2018-11-14T23:57:35.044Z,91.90
